Terminal Aerodrome Forecast
Issued by NWS Duluth, MN

Home | Current Version | Previous Version | Text Only | Print | Product List | Glossary On
Versions: 1 2 3 4 5 6 7 8 9 10 11 12 13 14 15 16 17 18 19 20
469
FTUS43 KDLH 171720
TAFINL
TAF
KINL 171720Z 1718/1818 36007KT P6SM OVC008
     FM171900 36008KT P6SM OVC015
     FM172000 35008KT P6SM BKN020
     FM172200 35008KT P6SM SCT040
     FM180200 36004KT P6SM SCT080
     FM180900 00000KT 3SM BR FEW150
     FM181300 VRB03KT P6SM FEW060=

USA.gov is the U.S. government's official web portal to all federal, state and local government web resources and services.